Terminal Aerodrome Forecast
Issued by NWS

Home | Current Version | Previous Version | Text Only | Print | Product List | Glossary On
Versions: 1 2 3 4 5 6 7 8 9 10 11 12 13 14
000
FTUS42 KMLB 301100
TAFISM
TAF
KISM 301130Z 3012/3112 27003KT P6SM FEW060 SCT250
     FM301400 30004KT P6SM FEW025 SCT250
     FM302300 12006KT P6SM SCT060 SCT250
     FM310200 VRB03KT P6SM SCT250=

USA.gov is the U.S. government's official web portal to all federal, state and local government web resources and services.